Time;durP1;ratioP1;P1;durP2;ratioP2;P2;SDS_P1;SDS_P2;PMS_P1;PMS_P2;Temp;Humidity;BMP_temperature;BMP_pressure;BME280_temperature;BME280_humidity;BME280_pressure;Samples;Min_cycle;Max_cycle;Signal;HPM_P1;HPM_P2
2022/03/22 00:02:01;;;;;;;23.88;14.25;;;;;;;8.48;47.70;102692.25;4919260;29;20032;-71
2022/03/22 00:04:46;;;;;;;25.17;14.48;;;;;;;8.60;48.76;102683.81;4919791;29;20441;-71
2022/03/22 00:07:32;;;;;;;26.90;14.73;;;;;;;8.68;48.78;102684.88;4919093;29;20484;-71
2022/03/22 00:10:18;;;;;;;28.17;15.23;;;;;;;8.78;48.59;102686.81;4919607;29;20036;-71
2022/03/22 00:13:05;;;;;;;25.45;15.07;;;;;;;9.03;48.30;102682.13;4918754;29;20038;-71
2022/03/22 00:15:52;;;;;;;26.40;15.63;;;;;;;8.93;49.42;102679.28;4905645;29;20052;-71
2022/03/22 00:18:38;;;;;;;26.65;15.38;;;;;;;8.70;50.54;102681.44;4918868;29;20039;-71
2022/03/22 00:21:25;;;;;;;26.08;15.80;;;;;;;8.88;50.77;102680.94;4919303;29;20543;-71
2022/03/22 00:24:10;;;;;;;30.73;15.68;;;;;;;8.64;51.96;102676.06;4918918;29;20060;-71
2022/03/22 00:26:56;;;;;;;23.90;14.85;;;;;;;8.96;51.28;102679.38;4905427;29;20035;-72
2022/03/22 00:29:42;;;;;;;26.08;15.00;;;;;;;9.13;50.56;102670.97;4904833;29;20028;-71
2022/03/22 00:32:30;;;;;;;26.30;15.52;;;;;;;8.79;52.54;102667.66;4919357;29;20024;-72
2022/03/22 00:35:18;;;;;;;28.48;15.80;;;;;;;8.66;53.61;102666.53;4919323;29;20032;-71
2022/03/22 00:38:06;;;;;;;26.35;15.32;;;;;;;8.29;54.64;102663.06;4918871;29;20024;-72
2022/03/22 00:40:52;;;;;;;24.58;15.00;;;;;;;8.83;54.35;102661.63;4919126;29;20028;-72
2022/03/22 00:43:38;;;;;;;26.63;15.35;;;;;;;8.58;54.83;102659.38;4919153;29;20097;-71
2022/03/22 00:46:25;;;;;;;26.05;16.33;;;;;;;8.67;55.62;102655.22;4918950;29;20024;-72
2022/03/22 00:49:11;;;;;;;27.90;16.15;;;;;;;8.65;56.35;102650.81;4904670;29;20039;-71
2022/03/22 00:51:56;;;;;;;25.42;15.43;;;;;;;8.74;56.40;102653.63;4904959;29;20032;-71
2022/03/22 00:54:42;;;;;;;23.85;15.40;;;;;;;8.89;56.00;102651.31;4919102;29;20042;-72
2022/03/22 00:57:28;;;;;;;27.08;16.08;;;;;;;9.04;55.74;102649.00;4904863;29;20370;-72
2022/03/22 01:00:14;;;;;;;26.27;15.20;;;;;;;8.94;55.07;102650.56;4904877;29;20031;-71
2022/03/22 01:03:01;;;;;;;26.38;15.38;;;;;;;8.82;55.86;102652.03;4904692;29;20039;-71
2022/03/22 01:05:50;;;;;;;27.75;16.23;;;;;;;8.59;57.22;102650.66;4919261;29;20039;-72
2022/03/22 01:08:37;;;;;;;29.80;17.58;;;;;;;8.54;57.17;102652.31;4918775;29;20020;-71
2022/03/22 01:11:22;;;;;;;26.65;16.90;;;;;;;8.23;59.15;102644.63;4919110;29;20366;-70
2022/03/22 01:14:08;;;;;;;30.70;17.35;;;;;;;8.49;59.02;102646.13;4922134;29;20087;-72
2022/03/22 01:16:55;;;;;;;29.92;18.17;;;;;;;8.48;58.85;102645.22;4922255;29;20028;-72
2022/03/22 01:19:41;;;;;;;30.27;18.83;;;;;;;8.44;58.70;102634.69;4922008;29;20074;-71
2022/03/22 01:22:27;;;;;;;35.38;20.92;;;;;;;8.20;59.89;102631.50;4922119;29;20373;-71
2022/03/22 01:25:19;;;;;;;34.20;20.63;;;;;;;8.40;59.16;102635.47;4922068;29;20480;-72
2022/03/22 01:28:07;;;;;;;37.45;21.73;;;;;;;8.59;58.38;102635.00;4922031;29;20449;-71
2022/03/22 01:30:53;;;;;;;38.97;20.88;;;;;;;9.00;56.81;102636.72;4922279;29;20103;-71
2022/03/22 01:33:40;;;;;;;37.00;21.30;;;;;;;8.57;57.63;102626.25;4922136;29;20111;-71
2022/03/22 01:36:25;;;;;;;38.72;23.02;;;;;;;8.32;58.15;102624.84;4907885;29;20054;-71
2022/03/22 01:39:11;;;;;;;38.85;21.48;;;;;;;8.69;57.23;102621.28;4921936;29;20036;-71
2022/03/22 01:41:57;;;;;;;34.30;20.25;;;;;;;8.55;57.88;102622.72;4922371;29;20024;-71
2022/03/22 01:44:43;;;;;;;37.83;21.23;;;;;;;8.18;58.72;102617.53;4908081;29;20060;-72
2022/03/22 01:47:29;;;;;;;36.65;20.42;;;;;;;8.11;58.70;102616.50;4908460;29;20099;-71
2022/03/22 01:50:22;;;;;;;34.65;19.55;;;;;;;8.65;57.74;102612.50;4920989;29;20036;-71
2022/03/22 01:53:10;;;;;;;34.20;20.48;;;;;;;8.10;59.01;102617.34;4922371;29;20039;-72
2022/03/22 01:55:57;;;;;;;32.30;19.70;;;;;;;7.84;61.05;102615.00;4921473;29;20028;-71
2022/03/22 01:58:43;;;;;;;35.38;19.98;;;;;;;7.96;60.76;102618.75;4908063;29;20091;-71
2022/03/22 02:07:40;;;;;;;30.65;18.67;;;;;;;8.25;61.90;102616.84;4921200;29;20079;-72
2022/03/22 02:10:26;;;;;;;36.70;21.35;;;;;;;7.96;65.04;102620.50;4921365;29;20395;-71
2022/03/22 02:13:13;;;;;;;36.00;22.15;;;;;;;7.90;67.19;102612.50;4920976;29;20068;-71
2022/03/22 02:16:01;;;;;;;34.22;21.60;;;;;;;8.04;67.09;102614.59;4922175;29;20039;-72
2022/03/22 02:18:50;;;;;;;35.95;21.10;;;;;;;8.22;67.16;102615.06;4921134;29;20024;-72
2022/03/22 02:21:39;;;;;;;33.80;20.55;;;;;;;8.25;67.89;102607.31;4921964;29;20119;-72
2022/03/22 02:24:25;;;;;;;36.17;21.08;;;;;;;8.18;69.26;102614.91;4906361;29;20043;-72
2022/03/22 02:27:11;;;;;;;38.38;21.75;;;;;;;8.41;66.68;102618.94;4921169;29;20082;-71
2022/03/22 02:29:57;;;;;;;37.03;20.77;;;;;;;8.60;64.87;102608.91;4921637;29;20043;-71
2022/03/22 02:32:50;;;;;;;36.85;21.75;;;;;;;7.98;68.23;102610.97;4921402;29;20059;-71
2022/03/22 02:35:36;;;;;;;35.22;21.25;;;;;;;8.37;66.75;102609.28;4907743;29;20035;-72
2022/03/22 02:38:22;;;;;;;35.35;21.15;;;;;;;8.09;67.87;102610.38;4920783;29;20031;-72
2022/03/22 02:41:14;;;;;;;34.33;21.50;;;;;;;7.85;70.94;102614.13;4921504;29;20056;-72
2022/03/22 02:44:00;;;;;;;35.95;21.92;;;;;;;7.78;71.47;102612.22;4906792;29;20020;-71
2022/03/22 02:46:46;;;;;;;36.22;21.55;;;;;;;7.98;69.74;102604.03;4921027;29;20452;-72
2022/03/22 02:49:34;;;;;;;38.58;21.95;;;;;;;8.06;68.49;102612.03;4920912;29;20450;-72
2022/03/22 02:52:20;;;;;;;37.03;22.13;;;;;;;7.74;69.65;102608.66;4920856;29;20546;-72
2022/03/22 02:55:09;;;;;;;37.90;22.42;;;;;;;8.09;68.18;102614.72;4920531;29;20050;-71
2022/03/22 02:57:55;;;;;;;38.92;22.83;;;;;;;7.96;68.86;102613.53;4921157;29;20065;-72
2022/03/22 03:00:41;;;;;;;42.33;24.60;;;;;;;8.28;65.15;102616.94;4919790;29;20085;-71
2022/03/22 03:03:27;;;;;;;45.47;24.15;;;;;;;8.20;64.65;102613.22;4920461;29;20076;-72
2022/03/22 03:06:13;;;;;;;49.83;25.98;;;;;;;8.04;64.78;102621.56;4906763;29;20385;-72
2022/03/22 03:08:59;;;;;;;47.95;24.17;;;;;;;7.80;67.18;102621.84;4920716;29;20374;-72
2022/03/22 03:11:44;;;;;;;44.33;24.98;;;;;;;7.65;67.69;102616.28;4906265;29;20028;-71
2022/03/22 03:14:39;;;;;;;46.65;25.83;;;;;;;7.72;68.08;102612.94;4919929;29;20048;-72
2022/03/22 03:17:25;;;;;;;45.10;23.17;;;;;;;8.02;66.61;102615.41;4920503;29;20035;-71
2022/03/22 03:20:11;;;;;;;41.95;22.55;;;;;;;8.03;66.36;102611.94;4920492;29;20479;-70
2022/03/22 03:22:57;;;;;;;34.05;20.98;;;;;;;7.78;67.01;102609.63;4920817;29;20032;-71
2022/03/22 03:25:43;;;;;;;36.40;21.65;;;;;;;7.56;70.65;102607.34;4919714;29;20497;-71
2022/03/22 03:28:29;;;;;;;36.17;21.48;;;;;;;7.76;70.43;102612.19;4920444;29;20032;-71
2022/03/22 03:31:14;;;;;;;37.25;20.60;;;;;;;7.84;70.10;102609.78;4920178;29;20115;-73
2022/03/22 03:34:00;;;;;;;35.03;20.70;;;;;;;7.93;69.14;102615.19;4919922;29;20051;-71
2022/03/22 03:36:46;;;;;;;35.42;20.30;;;;;;;7.28;75.90;102612.69;4919919;29;20028;-71
2022/03/22 03:39:33;;;;;;;38.67;20.63;;;;;;;6.74;82.29;102613.78;4905737;29;20028;-71
2022/03/22 03:42:19;;;;;;;37.97;21.23;;;;;;;5.92;94.53;102610.47;4919110;29;20123;-71
2022/03/22 03:48:09;;;;;;;36.05;20.95;;;;;;;6.25;95.34;102616.72;4919237;29;20024;-72
2022/03/22 03:50:55;;;;;;;39.92;21.67;;;;;;;6.01;98.37;102620.28;4920045;29;20032;-71
2022/03/22 03:53:41;;;;;;;37.05;21.42;;;;;;;5.93;99.71;102612.25;4919364;29;20099;-71
2022/03/22 03:56:26;;;;;;;35.00;21.13;;;;;;;5.93;100.00;102616.53;4920004;29;20121;-71
2022/03/22 03:59:12;;;;;;;35.72;21.85;;;;;;;5.89;100.00;102612.97;4919635;29;20036;-71
2022/03/22 04:01:59;;;;;;;36.85;21.52;;;;;;;5.99;100.00;102611.56;4919865;29;20063;-71
2022/03/22 04:04:51;;;;;;;34.47;20.40;;;;;;;5.80;100.00;102614.38;4919561;29;20119;-72
2022/03/22 04:07:37;;;;;;;34.85;21.35;;;;;;;5.81;100.00;102616.16;4919080;29;20034;-71
2022/03/22 04:10:23;;;;;;;34.83;20.85;;;;;;;5.78;100.00;102611.72;4919653;29;20059;-72
2022/03/22 04:13:09;;;;;;;36.10;20.60;;;;;;;5.88;100.00;102616.41;4904873;29;20032;-70
2022/03/22 04:15:54;;;;;;;35.65;19.80;;;;;;;5.84;100.00;102618.88;4919814;29;20119;-70
2022/03/22 04:18:40;;;;;;;38.90;20.85;;;;;;;5.75;100.00;102618.53;4918876;29;20043;-72
2022/03/22 04:21:26;;;;;;;38.58;21.13;;;;;;;5.72;100.00;102613.25;4920122;29;20488;-72
2022/03/22 04:24:12;;;;;;;38.58;21.48;;;;;;;5.79;100.00;102615.22;4904778;29;20032;-72
2022/03/22 04:32:41;;;;;;;35.13;20.75;;;;;;;5.58;100.00;102617.13;4919461;29;20020;-71
2022/03/22 04:33:08;;;;;;;44.80;22.17;;;;;;;5.52;100.00;102625.59;4919146;29;20437;-72
2022/03/22 04:35:54;;;;;;;42.10;23.08;;;;;;;5.61;100.00;102619.78;4919583;29;20054;-71
2022/03/22 04:38:40;;;;;;;42.78;24.10;;;;;;;5.60;100.00;102620.63;4919884;29;20043;-71
2022/03/22 04:41:26;;;;;;;44.38;23.55;;;;;;;5.92;100.00;102620.00;4905202;29;20396;-73
2022/03/22 04:44:12;;;;;;;45.72;24.95;;;;;;;5.83;100.00;102620.56;4904975;29;20035;-73
2022/03/22 04:46:58;;;;;;;43.58;24.98;;;;;;;5.72;100.00;102628.84;4918579;29;20095;-71
2022/03/22 04:49:44;;;;;;;43.28;24.40;;;;;;;5.82;100.00;102618.81;4919116;29;20024;-72
2022/03/22 04:58:38;;;;;;;38.75;22.42;;;;;;;5.42;100.00;102623.50;4919153;29;20418;-71
2022/03/22 05:01:24;;;;;;;45.67;23.17;;;;;;;5.65;100.00;102619.97;4918559;29;20055;-72
2022/03/22 05:04:10;;;;;;;41.80;22.75;;;;;;;5.77;100.00;102620.34;4905117;29;20064;-72
2022/03/22 05:06:56;;;;;;;45.58;24.17;;;;;;;5.65;100.00;102622.56;4904528;29;20064;-70
2022/03/22 05:09:42;;;;;;;37.33;22.40;;;;;;;5.75;100.00;102623.75;4918977;29;20477;-72
2022/03/22 05:12:28;;;;;;;42.75;22.65;;;;;;;5.81;100.00;102616.16;4918396;29;20063;-73
2022/03/22 05:15:13;;;;;;;41.60;22.63;;;;;;;5.78;100.00;102616.91;4918415;29;20079;-72
2022/03/22 05:17:59;;;;;;;42.50;22.50;;;;;;;5.88;100.00;102608.63;4919301;29;20038;-72
2022/03/22 05:20:45;;;;;;;45.88;22.73;;;;;;;5.96;100.00;102608.84;4919005;29;20020;-72
2022/03/22 05:23:31;;;;;;;38.05;21.20;;;;;;;6.12;100.00;102613.69;4919043;29;20035;-73
2022/03/22 05:26:17;;;;;;;45.55;21.80;;;;;;;5.96;100.00;102616.66;4918860;29;20024;-72
2022/03/22 05:29:06;;;;;;;38.50;20.63;;;;;;;6.02;100.00;102614.25;4904827;29;20029;-72
2022/03/22 05:31:52;;;;;;;36.20;19.95;;;;;;;6.16;100.00;102618.16;4918248;29;20036;-72
2022/03/22 05:34:38;;;;;;;36.92;19.88;;;;;;;5.68;100.00;102617.47;4905232;29;20067;-72
2022/03/22 05:37:24;;;;;;;37.63;20.42;;;;;;;6.28;99.70;102624.63;4918658;29;20373;-71
2022/03/22 05:40:10;;;;;;;43.20;21.88;;;;;;;6.30;98.27;102620.31;4905591;29;20099;-72
2022/03/22 05:42:56;;;;;;;39.05;21.60;;;;;;;6.14;93.66;102619.84;4918540;29;20032;-74
2022/03/22 05:45:48;;;;;;;40.88;20.67;;;;;;;6.47;87.93;102623.44;4918849;29;20343;-73
2022/03/22 05:48:35;;;;;;;37.08;19.48;;;;;;;6.30;84.24;102622.06;4917703;29;20063;-72
2022/03/22 05:51:22;;;;;;;36.70;19.08;;;;;;;6.48;80.94;102625.19;4917989;29;20436;-73
2022/03/22 05:54:08;;;;;;;32.10;17.52;;;;;;;6.33;79.14;102620.44;4917893;29;20036;-70
2022/03/22 05:56:54;;;;;;;31.23;17.33;;;;;;;6.43;77.99;102625.06;4918850;29;20024;-73
2022/03/22 05:59:40;;;;;;;32.70;16.92;;;;;;;6.33;77.18;102622.13;4921848;29;20056;-73
2022/03/22 06:02:26;;;;;;;28.45;15.82;;;;;;;6.58;74.71;102627.22;4922021;29;20032;-72
2022/03/22 06:05:12;;;;;;;36.92;17.05;;;;;;;6.84;72.66;102626.25;4908659;29;20390;-72
2022/03/22 06:07:59;;;;;;;38.38;16.55;;;;;;;7.03;71.90;102620.72;4921176;29;20039;-73
2022/03/22 06:10:45;;;;;;;33.40;17.58;;;;;;;6.61;72.86;102623.00;4921734;29;20488;-72
2022/03/22 06:13:31;;;;;;;29.35;16.73;;;;;;;7.03;70.64;102612.91;4920621;29;20385;-74
2022/03/22 06:16:18;;;;;;;30.13;16.60;;;;;;;6.96;70.41;102616.19;4921775;29;20028;-73
2022/03/22 06:19:03;;;;;;;32.22;17.15;;;;;;;7.02;70.84;102614.63;4920839;29;20054;-73
2022/03/22 06:21:49;;;;;;;29.45;17.20;;;;;;;6.92;71.55;102614.31;4921468;29;20024;-73
2022/03/22 06:24:35;;;;;;;30.65;16.83;;;;;;;6.87;72.80;102622.00;4920905;29;20028;-72
2022/03/22 06:27:20;;;;;;;30.08;16.63;;;;;;;6.84;73.07;102619.34;4921014;29;20228;-72
2022/03/22 06:30:08;;;;;;;30.02;17.02;;;;;;;7.07;73.66;102618.22;4921089;29;20020;-72
2022/03/22 06:32:59;;;;;;;35.03;17.02;;;;;;;7.70;70.75;102617.28;4920945;29;20087;-73
2022/03/22 06:35:47;;;;;;;32.28;16.42;;;;;;;7.56;70.08;102607.34;4921177;29;20047;-73
2022/03/22 06:38:32;;;;;;;34.33;19.40;;;;;;;7.35;70.72;102617.25;4920705;29;20040;-73
2022/03/22 06:41:18;;;;;;;33.80;17.10;;;;;;;7.80;68.44;102613.16;4920830;29;20115;-71
2022/03/22 06:44:05;;;;;;;32.30;17.13;;;;;;;7.74;68.24;102603.44;4920456;29;20032;-72
2022/03/22 06:46:51;;;;;;;27.75;16.50;;;;;;;8.00;67.26;102606.69;4921163;29;20036;-72
2022/03/22 06:49:36;;;;;;;30.00;16.58;;;;;;;8.11;67.42;102600.84;4920275;29;20531;-72
2022/03/22 06:52:22;;;;;;;30.48;15.63;;;;;;;7.90;67.95;102604.69;4921254;29;20357;-72
2022/03/22 06:55:09;;;;;;;25.83;14.98;;;;;;;7.85;68.22;102609.81;4920830;29;20354;-72
2022/03/22 06:57:56;;;;;;;31.10;16.50;;;;;;;8.46;67.09;102612.09;4921069;29;20028;-73
2022/03/22 07:00:41;;;;;;;31.33;15.75;;;;;;;8.51;66.44;102607.84;4920374;29;20469;-73
2022/03/22 07:03:27;;;;;;;31.33;16.08;;;;;;;8.44;66.55;102598.13;4906370;29;20043;-72
2022/03/22 07:06:14;;;;;;;27.63;16.92;;;;;;;8.42;66.39;102599.81;4920685;29;20028;-71
2022/03/22 07:09:00;;;;;;;32.25;16.20;;;;;;;8.66;65.93;102588.16;4920066;29;20476;-72
2022/03/22 07:11:52;;;;;;;32.53;15.88;;;;;;;9.03;64.09;102580.16;4920758;29;20418;-73
2022/03/22 07:14:40;;;;;;;32.97;16.10;;;;;;;9.26;64.17;102584.06;4919969;29;20051;-73
2022/03/22 07:17:26;;;;;;;39.90;21.33;;;;;;;9.41;62.56;102570.38;4920134;29;20096;-73
2022/03/22 07:20:12;;;;;;;34.95;19.85;;;;;;;9.18;64.60;102579.53;4906538;29;20029;-72
2022/03/22 07:22:59;;;;;;;27.30;16.27;;;;;;;9.60;63.29;102580.25;4906287;29;20032;-72
2022/03/22 07:25:44;;;;;;;29.63;15.75;;;;;;;9.85;62.25;102571.94;4919742;29;20111;-74
2022/03/22 07:28:30;;;;;;;27.80;16.55;;;;;;;10.22;61.56;102574.25;4906384;29;20055;-72
2022/03/22 07:31:16;;;;;;;29.75;15.73;;;;;;;10.12;61.24;102567.13;4905602;29;20036;-74
2022/03/22 07:34:02;;;;;;;32.25;17.65;;;;;;;10.43;60.38;102552.69;4920006;29;20032;-73
2022/03/22 07:36:52;;;;;;;28.33;17.00;;;;;;;10.67;60.17;102548.63;4919844;29;20524;-71
2022/03/22 07:39:37;;;;;;;28.92;16.35;;;;;;;11.15;58.29;102556.09;4920121;29;20047;-72
2022/03/22 07:42:28;;;;;;;27.45;16.52;;;;;;;11.85;56.71;102550.59;4920107;29;20036;-72
2022/03/22 07:45:13;;;;;;;29.98;16.45;;;;;;;12.24;55.21;102537.66;4919993;29;20441;-73
2022/03/22 07:47:59;;;;;;;27.90;15.68;;;;;;;12.72;54.26;102533.47;4919896;29;20192;-71
2022/03/22 07:53:49;;;;;;;26.02;13.10;;;;;;;13.11;56.14;102523.03;4918394;29;20028;-73
2022/03/22 07:56:35;;;;;;;22.92;12.05;;;;;;;13.19;57.75;102523.91;4918543;29;20032;-72
2022/03/22 07:59:24;;;;;;;23.08;10.43;;;;;;;13.48;58.17;102514.28;4919193;29;20032;-73
2022/03/22 08:02:10;;;;;;;20.45;9.85;;;;;;;13.57;59.05;102518.63;4919450;29;20063;-72
2022/03/22 08:04:55;;;;;;;25.60;9.52;;;;;;;13.85;58.58;102513.31;4919439;28;20047;-71
2022/03/22 08:07:41;;;;;;;24.88;9.25;;;;;;;14.06;58.15;102509.75;4905220;29;20338;-72
2022/03/22 08:10:27;;;;;;;18.70;8.60;;;;;;;14.25;57.69;102509.72;4919215;29;20061;-73
2022/03/22 08:13:14;;;;;;;14.98;8.18;;;;;;;14.41;56.19;102506.13;4918887;29;20035;-72
2022/03/22 08:16:00;;;;;;;19.92;9.30;;;;;;;14.30;56.41;102499.13;4919622;29;20119;-72
2022/03/22 08:18:45;;;;;;;23.27;9.00;;;;;;;14.55;55.47;102506.91;4919589;29;20055;-72
2022/03/22 08:21:32;;;;;;;17.23;9.02;;;;;;;14.22;55.72;102511.47;4919286;28;20043;-72
2022/03/22 08:24:17;;;;;;;14.90;8.43;;;;;;;14.14;55.48;102495.66;4919270;29;20338;-72
2022/03/22 08:27:07;;;;;;;16.27;8.45;;;;;;;14.63;55.49;102486.66;4919966;29;20074;-73
2022/03/22 08:29:53;;;;;;;27.13;8.60;;;;;;;14.54;54.74;102502.53;4919915;28;20035;-72
2022/03/22 08:32:41;;;;;;;21.67;8.80;;;;;;;14.83;53.42;102490.03;4920268;28;20445;-73
2022/03/22 08:35:28;;;;;;;17.40;8.45;;;;;;;14.94;53.00;102502.31;4906840;29;20054;-72
2022/03/22 08:38:15;;;;;;;17.52;8.82;;;;;;;15.41;52.62;102495.78;4921726;29;20054;-73
2022/03/22 08:41:01;;;;;;;24.98;9.57;;;;;;;15.78;51.60;102480.41;4919064;29;20039;-71
2022/03/22 08:43:47;;;;;;;26.40;10.88;;;;;;;16.28;50.11;102480.72;4905407;29;20378;-72
2022/03/22 08:46:33;;;;;;;18.45;11.30;;;;;;;16.23;48.88;102479.91;4919430;29;20036;-73
2022/03/22 08:49:18;;;;;;;19.08;11.05;;;;;;;16.38;48.36;102488.50;4919017;29;20024;-73
2022/03/22 08:52:05;;;;;;;30.45;11.27;;;;;;;16.11;47.72;102470.34;4918827;29;20047;-73
2022/03/22 08:54:51;;;;;;;23.02;11.25;;;;;;;16.07;48.83;102462.47;4919345;29;20171;-72
2022/03/22 08:57:37;;;;;;;34.33;19.92;;;;;;;16.42;47.98;102477.03;4919325;29;20032;-72
2022/03/22 09:00:24;;;;;;;27.85;9.00;;;;;;;16.40;46.76;102452.31;4918836;29;20458;-72
2022/03/22 09:03:11;;;;;;;19.63;9.27;;;;;;;16.14;47.52;102441.22;4918548;29;20217;-72
2022/03/22 09:06:08;;;;;;;24.10;10.73;;;;;;;16.60;46.76;102454.72;4918812;29;20032;-72
2022/03/22 09:08:54;;;;;;;15.98;7.80;;;;;;;16.54;46.42;102450.41;4919115;29;20075;-73
2022/03/22 09:11:40;;;;;;;30.98;8.98;;;;;;;16.42;45.38;102440.00;4903844;29;20043;-73
2022/03/22 09:14:28;;;;;;;19.85;8.15;;;;;;;16.21;45.92;102442.91;4905116;29;20485;-73
2022/03/22 09:17:13;;;;;;;15.35;8.15;;;;;;;16.35;45.98;102432.13;4919262;29;20183;-72
2022/03/22 09:19:59;;;;;;;16.27;8.18;;;;;;;16.72;44.65;102434.22;4919781;29;20031;-73
2022/03/22 09:22:51;;;;;;;17.30;8.38;;;;;;;16.65;44.55;102429.94;4919337;29;20048;-72
2022/03/22 09:25:38;;;;;;;36.58;9.60;;;;;;;16.98;43.98;102431.16;4918370;29;20031;-73
2022/03/22 09:28:23;;;;;;;46.35;22.15;;;;;;;17.20;43.54;102433.41;4917256;29;20028;-73
2022/03/22 09:31:09;;;;;;;28.52;7.93;;;;;;;16.90;43.58;102417.19;4904448;29;20035;-73
2022/03/22 09:33:57;;;;;;;28.50;7.60;;;;;;;17.24;42.57;102413.94;4920203;29;20032;-73
2022/03/22 09:36:42;;;;;;;19.75;7.00;;;;;;;16.57;41.66;102415.06;4922701;29;20373;-72
2022/03/22 09:39:28;;;;;;;53.25;8.73;;;;;;;16.72;41.79;102444.81;4921395;29;20123;-72
2022/03/22 09:42:15;;;;;;;22.50;7.18;;;;;;;16.34;42.31;102433.88;4921605;29;20028;-72
2022/03/22 09:45:01;;;;;;;24.95;6.93;;;;;;;16.34;42.21;102410.09;4921677;29;20024;-70
2022/03/22 09:47:46;;;;;;;178.82;14.98;;;;;;;16.33;41.09;102413.63;4921666;29;20446;-72
2022/03/22 09:53:37;;;;;;;41.25;7.85;;;;;;;16.24;41.27;102407.59;4921499;29;20029;-72
2022/03/22 09:56:26;;;;;;;17.25;6.35;;;;;;;16.05;41.39;102401.69;4921204;29;20036;-72
2022/03/22 09:59:14;;;;;;;21.58;6.20;;;;;;;16.22;42.11;102388.22;4907875;29;20346;-73
2022/03/22 10:02:01;;;;;;;16.13;5.72;;;;;;;16.53;41.09;102389.56;4921426;29;20073;-72
2022/03/22 10:04:47;;;;;;;17.13;5.72;;;;;;;16.51;41.57;102396.66;4921486;29;20032;-72
2022/03/22 10:07:33;;;;;;;23.17;5.95;;;;;;;16.31;39.93;102398.69;4907402;29;20134;-72
2022/03/22 10:10:19;;;;;;;20.20;5.75;;;;;;;16.18;40.38;102391.78;4922046;29;20422;-72
2022/03/22 10:13:05;;;;;;;27.05;6.30;;;;;;;16.53;40.28;102389.56;4921084;29;20042;-75
2022/03/22 10:16:01;;;;;;;23.25;6.10;;;;;;;16.51;39.59;102384.28;4923120;28;20370;-72
2022/03/22 10:18:47;;;;;;;64.03;8.38;;;;;;;16.73;38.89;102387.47;4895032;29;20043;-71
2022/03/22 10:21:44;;;;;;;35.75;6.18;;;;;;;16.34;38.30;102362.47;4922744;28;20119;-72
2022/03/22 10:24:30;;;;;;;37.40;7.00;;;;;;;16.38;38.29;102372.09;4921163;29;20475;-72
2022/03/22 10:27:36;;;;;;;30.50;6.18;;;;;;;16.66;37.87;102357.56;4922337;28;20035;-72
2022/03/22 10:30:22;;;;;;;25.25;6.57;;;;;;;16.67;38.54;102348.72;4921413;29;20032;-73
2022/03/22 10:33:09;;;;;;;14.88;5.72;;;;;;;16.92;38.88;102367.72;4921699;29;20028;-71
2022/03/22 10:35:55;;;;;;;24.38;5.68;;;;;;;16.61;38.60;102345.31;4907254;29;20087;-73
2022/03/22 10:38:52;;;;;;;50.40;7.65;;;;;;;16.48;37.56;102333.19;4921968;28;20029;-73
2022/03/22 10:41:41;;;;;;;26.83;6.57;;;;;;;16.37;37.89;102337.72;4922187;28;20024;-73
2022/03/22 10:44:28;;;;;;;16.20;6.57;;;;;;;16.43;37.78;102345.63;4907033;29;20219;-72
2022/03/22 10:47:26;;;;;;;26.48;6.50;;;;;;;16.43;37.02;102337.69;4922180;29;20040;-72
2022/03/22 10:50:13;;;;;;;35.00;6.78;;;;;;;16.82;37.32;102353.78;4920518;29;20092;-73
2022/03/22 10:52:59;;;;;;;15.80;6.13;;;;;;;16.61;37.25;102335.63;4922110;28;20541;-73
2022/03/22 10:55:46;;;;;;;17.40;6.30;;;;;;;16.67;35.76;102327.56;4920621;29;20099;-71
2022/03/22 10:58:32;;;;;;;39.92;7.65;;;;;;;16.32;36.53;102334.28;4921798;29;20028;-72
2022/03/22 11:01:20;;;;;;;29.45;7.50;;;;;;;16.86;36.14;102323.69;4908057;29;20028;-72
2022/03/22 11:04:07;;;;;;;25.52;7.50;;;;;;;16.87;36.18;102322.78;4930209;28;20369;-72
2022/03/22 11:06:54;;;;;;;28.13;7.15;;;;;;;16.81;35.67;102308.78;4921835;29;20107;-72
2022/03/22 11:09:41;;;;;;;26.10;7.25;;;;;;;16.46;33.54;102322.63;4920697;29;20036;-72
2022/03/22 11:12:30;;;;;;;45.28;8.02;;;;;;;16.49;33.32;102319.06;4920220;29;20070;-72
2022/03/22 11:15:16;;;;;;;38.03;8.23;;;;;;;16.58;33.60;102318.88;4906980;29;20107;-72
2022/03/22 11:18:04;;;;;;;31.95;8.63;;;;;;;16.85;33.98;102331.66;4920592;29;20173;-73
2022/03/22 11:20:52;;;;;;;32.25;8.18;;;;;;;16.58;34.49;102324.19;4920191;29;20145;-73
2022/03/22 11:23:38;;;;;;;45.63;9.65;;;;;;;16.71;35.21;102326.59;4920724;29;20101;-72
2022/03/22 11:26:27;;;;;;;31.70;8.68;;;;;;;16.44;35.82;102320.91;4906727;29;20130;-72
2022/03/22 11:29:17;;;;;;;36.08;9.35;;;;;;;16.45;36.64;102322.66;4920702;29;20028;-72
2022/03/22 11:35:14;;;;;;;38.25;10.98;;;;;;;16.74;36.53;102301.84;4919785;29;20028;-72
2022/03/22 11:38:00;;;;;;;32.63;9.20;;;;;;;16.76;36.40;102300.06;4918238;29;20115;-71
2022/03/22 11:44:00;;;;;;;58.83;9.88;;;;;;;16.53;35.66;102283.69;4919375;29;20098;-74
2022/03/22 11:46:48;;;;;;;43.90;8.75;;;;;;;16.73;35.67;102277.19;4905182;29;20074;-73
2022/03/22 11:49:53;;;;;;;36.85;7.78;;;;;;;17.19;34.90;102269.22;4919435;29;20453;-72
2022/03/22 11:52:40;;;;;;;38.80;7.78;;;;;;;17.39;34.75;102281.16;4919656;29;20083;-72
2022/03/22 11:55:27;;;;;;;51.28;7.70;;;;;;;16.87;34.98;102272.50;4919238;29;20529;-73
2022/03/22 11:58:13;;;;;;;36.38;7.38;;;;;;;16.92;35.29;102262.69;4919980;29;20032;-74
2022/03/22 12:01:01;;;;;;;41.47;8.75;;;;;;;17.04;34.98;102258.94;4919473;29;20479;-72
2022/03/22 12:03:53;;;;;;;42.42;7.53;;;;;;;17.45;34.48;102248.41;4919735;29;20036;-73
2022/03/22 12:06:39;;;;;;;33.55;8.18;;;;;;;17.09;34.69;102265.00;4919925;29;20062;-73
2022/03/22 12:09:26;;;;;;;36.78;7.70;;;;;;;16.88;35.32;102241.59;4906175;29;20028;-72
2022/03/22 12:12:14;;;;;;;56.72;8.70;;;;;;;17.04;35.10;102251.00;4918925;29;20053;-71
2022/03/22 12:15:03;;;;;;;48.30;8.23;;;;;;;17.08;35.30;102253.53;4905949;29;20052;-72
2022/03/22 12:17:49;;;;;;;52.90;8.70;;;;;;;17.40;35.07;102245.84;4919239;29;20153;-72
2022/03/22 12:20:35;;;;;;;47.53;7.30;;;;;;;17.17;35.67;102247.19;4918863;29;20107;-72
2022/03/22 12:23:21;;;;;;;43.60;8.57;;;;;;;17.03;36.03;102257.16;4919107;29;20366;-72
2022/03/22 12:26:08;;;;;;;46.42;8.20;;;;;;;16.72;36.44;102254.22;4919660;29;20502;-72
2022/03/22 12:28:54;;;;;;;40.30;8.20;;;;;;;16.82;36.57;102260.22;4918869;29;20036;-73
2022/03/22 12:31:51;;;;;;;50.03;8.05;;;;;;;16.41;37.24;102242.47;4917471;29;20103;-72
2022/03/22 12:34:36;;;;;;;42.15;8.77;;;;;;;16.78;37.13;102232.97;4919217;29;20024;-72
2022/03/22 12:37:22;;;;;;;41.60;8.10;;;;;;;16.96;36.87;102245.81;4919297;29;20027;-72
2022/03/22 12:40:08;;;;;;;66.22;7.70;;;;;;;16.59;35.91;102228.88;4919453;29;20107;-73
2022/03/22 12:42:56;;;;;;;43.08;7.45;;;;;;;16.57;36.27;102246.59;4919208;29;20035;-72
2022/03/22 12:45:44;;;;;;;54.50;6.47;;;;;;;16.85;35.28;102220.47;4919593;29;20031;-71
2022/03/22 12:48:30;;;;;;;55.40;6.40;;;;;;;16.67;35.39;102242.84;4906095;29;20032;-72
2022/03/22 12:51:16;;;;;;;55.67;6.53;;;;;;;16.90;35.26;102245.06;4918187;29;20028;-74
2022/03/22 12:54:03;;;;;;;62.38;7.38;;;;;;;16.62;35.28;102228.84;4918248;29;20043;-73
2022/03/22 12:56:49;;;;;;;50.55;6.75;;;;;;;16.40;35.58;102226.56;4918568;29;20033;-74
2022/03/22 12:59:35;;;;;;;51.38;6.18;;;;;;;16.64;35.44;102223.53;4904768;29;20428;-73
2022/03/22 13:02:22;;;;;;;51.40;5.78;;;;;;;16.64;35.50;102234.97;4918988;29;20027;-73
2022/03/22 13:05:08;;;;;;;50.42;5.60;;;;;;;16.45;35.67;102241.50;4918909;29;20036;-73
2022/03/22 13:07:56;;;;;;;47.38;5.63;;;;;;;16.22;35.85;102232.16;4919738;29;20048;-73
2022/03/22 13:16:53;;;;;;;60.35;7.05;;;;;;;16.48;35.97;102241.44;4922794;29;20036;-73
2022/03/22 13:19:39;;;;;;;44.20;5.07;;;;;;;16.22;36.14;102245.38;4908707;29;20422;-72
2022/03/22 13:22:26;;;;;;;30.40;5.18;;;;;;;15.99;36.05;102261.63;4923820;28;20452;-72